Time;durP1;ratioP1;P1;durP2;ratioP2;P2;SDS_P1;SDS_P2;PMS_P1;PMS_P2;Temp;Humidity;BMP_temperature;BMP_pressure;BME280_temperature;BME280_humidity;BME280_pressure;Samples;Min_cycle;Max_cycle;Signal;HPM_P1;HPM_P2
2021/03/08 00:00:26;;;;;;;;;;;1.60;86.10;;;;;;4948635;29;19922;-80
2021/03/08 00:02:51;;;;;;;;;;;1.60;85.90;;;;;;4947317;28;19958;-80
2021/03/08 00:05:17;;;;;;;;;;;1.60;86.70;;;;;;4949164;28;19962;-80
2021/03/08 00:07:46;;;;;;;;;;;1.60;86.50;;;;;;4967409;28;19919;-79
2021/03/08 00:10:12;;;;;;;;;;;1.60;87.00;;;;;;4947116;28;19946;-80
2021/03/08 00:12:38;;;;;;;;;;;1.60;86.70;;;;;;4951312;29;20410;-80
2021/03/08 00:15:04;;;;;;;;;;;1.60;86.50;;;;;;4951076;29;19925;-79
2021/03/08 00:17:29;;;;;;;;;;;1.70;86.50;;;;;;4947500;28;19910;-79
2021/03/08 00:19:57;;;;;;;;;;;1.60;86.40;;;;;;4951046;28;19931;-80
2021/03/08 00:22:25;;;;;;;;;;;1.70;86.40;;;;;;4947726;28;19973;-80
2021/03/08 00:24:51;;;;;;;;;;;1.60;86.80;;;;;;4947080;28;20347;-80
2021/03/08 00:27:19;;;;;;;;;;;1.60;86.80;;;;;;4950353;28;19910;-80
2021/03/08 00:29:44;;;;;;;;;;;1.60;86.50;;;;;;4949223;28;19991;-80
2021/03/08 00:32:12;;;;;;;;;;;1.60;86.90;;;;;;4950214;29;20336;-80
2021/03/08 00:34:38;;;;;;;;;;;1.60;87.00;;;;;;4925913;29;19922;-80
2021/03/08 00:37:05;;;;;;;;;;;1.60;86.60;;;;;;4947674;28;19918;-79
2021/03/08 00:39:35;;;;;;;;;;;1.60;86.60;;;;;;4949343;28;20117;-79
2021/03/08 00:42:00;;;;;;;;;;;1.60;86.90;;;;;;4948607;29;19926;-80
2021/03/08 00:44:26;;;;;;;;;;;1.60;86.70;;;;;;4948020;29;19910;-80
2021/03/08 00:46:54;;;;;;;;;;;1.60;86.30;;;;;;4950013;28;20020;-80
2021/03/08 00:49:22;;;;;;;;;;;1.60;86.80;;;;;;4947705;29;19918;-79
2021/03/08 00:51:47;;;;;;;;;;;1.60;85.90;;;;;;4928744;29;19946;-80
2021/03/08 00:54:13;;;;;;;;;;;1.60;85.80;;;;;;4961485;28;20005;-80
2021/03/08 00:56:38;;;;;;;;;;;1.60;85.20;;;;;;4931392;29;19925;-80
2021/03/08 00:59:04;;;;;;;;;;;1.60;84.80;;;;;;4945499;28;19911;-80
2021/03/08 01:01:29;;;;;;;;;;;1.60;85.00;;;;;;4948530;28;20314;-80
2021/03/08 01:03:55;;;;;;;;;;;1.60;85.20;;;;;;4947188;29;20280;-78
2021/03/08 01:06:23;;;;;;;;;;;1.60;85.10;;;;;;4945661;29;20267;-79
2021/03/08 01:08:48;;;;;;;;;;;1.60;85.10;;;;;;4946993;28;19911;-79
2021/03/08 01:11:16;;;;;;;;;;;1.60;85.10;;;;;;4947063;28;19942;-80
2021/03/08 01:13:42;;;;;;;;;;;1.60;85.80;;;;;;4945653;28;19946;-79
2021/03/08 01:16:07;;;;;;;;;;;1.60;85.40;;;;;;4947436;29;19965;-79
2021/03/08 01:18:33;;;;;;;;;;;1.50;86.60;;;;;;4947476;29;19910;-79
2021/03/08 01:20:59;;;;;;;;;;;1.50;86.00;;;;;;4949461;29;20274;-79
2021/03/08 01:23:24;;;;;;;;;;;1.50;85.80;;;;;;4966470;28;20300;-79
2021/03/08 01:25:50;;;;;;;;;;;1.50;87.10;;;;;;4947230;28;19941;-80
2021/03/08 01:28:15;;;;;;;;;;;1.50;86.70;;;;;;4947531;29;19965;-79
2021/03/08 01:30:44;;;;;;;;;;;1.50;86.30;;;;;;4947825;28;19968;-79
2021/03/08 01:33:09;;;;;;;;;;;1.50;86.50;;;;;;4949538;28;19921;-79
2021/03/08 01:35:38;;;;;;;;;;;1.50;87.60;;;;;;4946308;28;19922;-79
2021/03/08 01:38:06;;;;;;;;;;;1.40;87.40;;;;;;4948296;28;19922;-79
2021/03/08 01:40:35;;;;;;;;;;;1.40;88.00;;;;;;4945492;28;19921;-79
2021/03/08 01:43:01;;;;;;;;;;;1.30;88.20;;;;;;4954246;28;20341;-78
2021/03/08 01:45:26;;;;;;;;;;;1.40;87.60;;;;;;4946880;28;19958;-78
2021/03/08 01:47:52;;;;;;;;;;;1.40;87.90;;;;;;4949076;28;20518;-78
2021/03/08 01:50:27;;;;;;;;;;;1.40;87.70;;;;;;4945784;28;19946;-79
2021/03/08 01:52:52;;;;;;;;;;;1.40;87.70;;;;;;4950073;29;19910;-79
2021/03/08 01:55:21;;;;;;;;;;;1.30;88.50;;;;;;4945958;29;19946;-78
2021/03/08 01:57:47;;;;;;;;;;;1.30;88.70;;;;;;4945293;29;19926;-78
2021/03/08 02:00:12;;;;;;;;;;;1.30;87.30;;;;;;4947828;28;19914;-78
2021/03/08 02:02:38;;;;;;;;;;;1.30;88.80;;;;;;4944262;28;19923;-78
2021/03/08 02:05:05;;;;;;;;;;;1.30;88.80;;;;;;4946396;29;19921;-78
2021/03/08 02:07:31;;;;;;;;;;;1.30;89.50;;;;;;4945633;29;19910;-78
2021/03/08 02:09:59;;;;;;;;;;;1.30;89.40;;;;;;4945406;29;20348;-78
2021/03/08 02:12:43;;;;;;;;;;;1.30;89.10;;;;;;4949535;29;19918;-77
2021/03/08 02:15:11;;;;;;;;;;;1.30;88.40;;;;;;4948487;28;19914;-77
2021/03/08 02:17:37;;;;;;;;;;;1.20;89.20;;;;;;4948192;29;20312;-77
2021/03/08 02:20:05;;;;;;;;;;;1.20;89.50;;;;;;4945648;29;19969;-77
2021/03/08 02:22:43;;;;;;;;;;;1.20;90.10;;;;;;4948204;28;20252;-77
2021/03/08 02:25:11;;;;;;;;;;;1.20;89.90;;;;;;4947307;29;20048;-77
2021/03/08 02:27:42;;;;;;;;;;;1.20;89.60;;;;;;4946634;28;19918;-78
2021/03/08 02:30:26;;;;;;;;;;;1.20;89.80;;;;;;4947763;29;19924;-77
2021/03/08 02:32:51;;;;;;;;;;;1.20;90.10;;;;;;4942412;29;19940;-77
2021/03/08 02:35:18;;;;;;;;;;;1.20;89.70;;;;;;4964956;28;20376;-77
2021/03/08 02:37:50;;;;;;;;;;;1.20;89.00;;;;;;4929722;29;19911;-77
2021/03/08 02:40:17;;;;;;;;;;;1.10;90.30;;;;;;4947922;28;19970;-77
2021/03/08 02:42:43;;;;;;;;;;;1.00;91.10;;;;;;4941764;29;20526;-77
2021/03/08 02:45:09;;;;;;;;;;;1.00;90.20;;;;;;4955513;28;19911;-77
2021/03/08 02:47:37;;;;;;;;;;;1.00;90.80;;;;;;4945470;29;19922;-77
2021/03/08 02:50:05;;;;;;;;;;;1.00;91.50;;;;;;4941992;29;20500;-77
2021/03/08 02:52:32;;;;;;;;;;;1.00;91.00;;;;;;4959188;28;20472;-77
2021/03/08 02:54:58;;;;;;;;;;;0.90;91.70;;;;;;4951683;28;20515;-77
2021/03/08 02:57:28;;;;;;;;;;;0.90;91.60;;;;;;4950557;29;19960;-77
2021/03/08 02:59:54;;;;;;;;;;;0.90;91.90;;;;;;4949666;29;19989;-77
2021/03/08 03:02:20;;;;;;;;;;;0.80;92.20;;;;;;4951684;28;20364;-77
2021/03/08 03:04:46;;;;;;;;;;;0.80;92.60;;;;;;4949666;28;19914;-77
2021/03/08 03:07:11;;;;;;;;;;;0.70;94.40;;;;;;4950538;28;20349;-77
2021/03/08 03:09:42;;;;;;;;;;;0.60;94.50;;;;;;4953471;28;19945;-76
2021/03/08 03:12:10;;;;;;;;;;;0.70;92.80;;;;;;4968600;28;19921;-76
2021/03/08 03:14:38;;;;;;;;;;;0.70;92.60;;;;;;4948757;29;19914;-76
2021/03/08 03:17:04;;;;;;;;;;;0.80;91.90;;;;;;4945845;29;19925;-76
2021/03/08 03:19:30;;;;;;;;;;;0.80;92.70;;;;;;4950118;28;20387;-77
2021/03/08 03:21:58;;;;;;;;;;;0.70;93.50;;;;;;4962047;28;19918;-76
2021/03/08 03:24:26;;;;;;;;;;;0.70;93.60;;;;;;4950458;29;19914;-76
2021/03/08 03:26:54;;;;;;;;;;;0.70;93.30;;;;;;4968252;28;19937;-76
2021/03/08 03:29:21;;;;;;;;;;;0.70;92.60;;;;;;4948673;28;19946;-76
2021/03/08 03:31:47;;;;;;;;;;;0.70;92.20;;;;;;4948888;29;20009;-76
2021/03/08 03:34:15;;;;;;;;;;;0.70;92.00;;;;;;4948913;29;19982;-76
2021/03/08 03:36:41;;;;;;;;;;;0.70;91.70;;;;;;4955667;28;19953;-76
2021/03/08 03:39:07;;;;;;;;;;;0.80;92.40;;;;;;4952659;29;19921;-76
2021/03/08 03:41:37;;;;;;;;;;;0.70;93.10;;;;;;4930637;29;19921;-76
2021/03/08 03:44:03;;;;;;;;;;;0.60;94.10;;;;;;4951898;28;19910;-76
2021/03/08 03:46:28;;;;;;;;;;;0.60;93.50;;;;;;4950839;28;20479;-76
2021/03/08 03:48:54;;;;;;;;;;;0.50;93.50;;;;;;4951432;29;19953;-76
2021/03/08 03:51:20;;;;;;;;;;;0.50;93.40;;;;;;4946922;29;19914;-76
2021/03/08 03:53:45;;;;;;;;;;;0.50;94.40;;;;;;4949938;28;19930;-76
2021/03/08 03:56:11;;;;;;;;;;;0.50;93.40;;;;;;4968533;28;19911;-76
2021/03/08 03:58:39;;;;;;;;;;;0.50;93.10;;;;;;4931463;29;20025;-76
2021/03/08 04:01:07;;;;;;;;;;;0.40;93.70;;;;;;4947279;29;19985;-76
2021/03/08 04:03:33;;;;;;;;;;;0.40;93.40;;;;;;4929550;29;19984;-76
2021/03/08 04:06:01;;;;;;;;;;;0.40;93.40;;;;;;4941738;29;20420;-76
2021/03/08 04:08:29;;;;;;;;;;;0.40;92.70;;;;;;4950541;29;19981;-76
2021/03/08 04:10:55;;;;;;;;;;;0.50;92.70;;;;;;4951119;29;19911;-76
2021/03/08 04:13:25;;;;;;;;;;;0.40;93.10;;;;;;4936940;29;19946;-76
2021/03/08 04:15:50;;;;;;;;;;;0.50;92.30;;;;;;4948267;29;19914;-76
2021/03/08 04:18:18;;;;;;;;;;;0.40;94.60;;;;;;4946978;29;19911;-76
2021/03/08 04:20:44;;;;;;;;;;;0.40;92.10;;;;;;4956345;28;20683;-76
2021/03/08 04:23:10;;;;;;;;;;;0.40;95.00;;;;;;4950094;28;20001;-76
2021/03/08 04:25:36;;;;;;;;;;;0.30;94.30;;;;;;4951320;28;20013;-76
2021/03/08 04:28:05;;;;;;;;;;;0.30;94.30;;;;;;4944116;29;20058;-76
2021/03/08 04:30:33;;;;;;;;;;;0.30;93.20;;;;;;4945940;29;20344;-76
2021/03/08 04:33:00;;;;;;;;;;;0.30;94.80;;;;;;4951011;28;19964;-76
2021/03/08 04:35:29;;;;;;;;;;;0.20;94.40;;;;;;4934979;29;19914;-76
2021/03/08 04:37:56;;;;;;;;;;;0.30;93.80;;;;;;4947094;29;19910;-76
2021/03/08 04:40:24;;;;;;;;;;;0.30;95.40;;;;;;4945799;28;19911;-77
2021/03/08 04:42:51;;;;;;;;;;;0.20;95.00;;;;;;4948448;28;20313;-76
2021/03/08 04:45:22;;;;;;;;;;;0.20;94.50;;;;;;4943639;28;20058;-76
2021/03/08 04:47:48;;;;;;;;;;;0.20;94.40;;;;;;4946143;29;19926;-76
2021/03/08 04:50:16;;;;;;;;;;;0.20;93.80;;;;;;4950753;29;20423;-76
2021/03/08 04:52:51;;;;;;;;;;;0.20;94.50;;;;;;4947075;29;19918;-76
2021/03/08 04:55:16;;;;;;;;;;;0.30;94.60;;;;;;4949507;29;20508;-76
2021/03/08 04:57:44;;;;;;;;;;;0.30;93.90;;;;;;4965241;28;19926;-76
2021/03/08 05:00:11;;;;;;;;;;;0.30;94.20;;;;;;4948505;29;19910;-77
2021/03/08 05:02:39;;;;;;;;;;;0.30;93.70;;;;;;4948769;28;19914;-76
2021/03/08 05:05:08;;;;;;;;;;;0.30;93.20;;;;;;4947940;28;19950;-76
2021/03/08 05:07:34;;;;;;;;;;;0.30;93.40;;;;;;4935167;29;20399;-76
2021/03/08 05:10:02;;;;;;;;;;;0.30;92.90;;;;;;4935773;29;20451;-77
2021/03/08 05:12:27;;;;;;;;;;;0.30;93.40;;;;;;4948727;28;19918;-76
2021/03/08 05:14:53;;;;;;;;;;;0.30;93.30;;;;;;4943040;28;20309;-77
2021/03/08 05:17:19;;;;;;;;;;;0.20;92.90;;;;;;4953357;28;19914;-77
2021/03/08 05:19:45;;;;;;;;;;;0.20;92.60;;;;;;4948496;28;19922;-76
2021/03/08 05:22:11;;;;;;;;;;;0.30;93.10;;;;;;4945852;28;19941;-76
2021/03/08 05:24:36;;;;;;;;;;;0.30;92.90;;;;;;4948981;28;19914;-76
2021/03/08 05:27:08;;;;;;;;;;;0.20;93.10;;;;;;4948426;28;19910;-74
2021/03/08 05:29:40;;;;;;;;;;;0.20;93.60;;;;;;4947198;29;19911;-76
2021/03/08 05:32:09;;;;;;;;;;;0.20;93.60;;;;;;4948754;29;19960;-76
2021/03/08 05:34:40;;;;;;;;;;;0.10;93.90;;;;;;4944865;28;19926;-76
2021/03/08 05:37:05;;;;;;;;;;;0.20;94.20;;;;;;4930626;29;20248;-76
2021/03/08 05:39:31;;;;;;;;;;;0.10;94.10;;;;;;4965207;28;19914;-77
2021/03/08 05:42:09;;;;;;;;;;;0.10;93.60;;;;;;4948676;28;20399;-76
2021/03/08 05:44:39;;;;;;;;;;;0.10;93.20;;;;;;4932068;29;20021;-76
2021/03/08 05:47:35;;;;;;;;;;;0.10;92.50;;;;;;4946080;29;19910;-76
2021/03/08 05:50:03;;;;;;;;;;;0.10;92.50;;;;;;4939415;28;19976;-76
2021/03/08 05:52:47;;;;;;;;;;;0.10;92.50;;;;;;4949389;29;19918;-76
2021/03/08 05:55:22;;;;;;;;;;;0.20;93.30;;;;;;4947230;28;19919;-76
2021/03/08 05:58:03;;;;;;;;;;;0.10;94.50;;;;;;4948614;29;20304;-76
2021/03/08 06:00:47;;;;;;;;;;;0.10;93.70;;;;;;4948037;28;19950;-76
2021/03/08 06:03:31;;;;;;;;;;;0.10;93.40;;;;;;4949730;29;20553;-76
2021/03/08 06:06:09;;;;;;;;;;;0.10;93.50;;;;;;4949216;29;20321;-76
2021/03/08 06:09:04;;;;;;;;;;;0.10;93.70;;;;;;4949441;29;20256;-76
2021/03/08 06:11:34;;;;;;;;;;;0.10;93.80;;;;;;4909538;28;20231;-75
2021/03/08 06:14:00;;;;;;;;;;;0.10;93.50;;;;;;4948611;28;19925;-76
2021/03/08 06:16:35;;;;;;;;;;;0.20;93.50;;;;;;4948432;28;19919;-76
2021/03/08 06:19:04;;;;;;;;;;;0.10;95.20;;;;;;4947223;29;20038;-75
2021/03/08 06:21:33;;;;;;;;;;;0.10;97.30;;;;;;4934058;29;19942;-76
2021/03/08 06:23:58;;;;;;;;;;;0.10;96.70;;;;;;4943289;28;19918;-76
2021/03/08 06:26:24;;;;;;;;;;;0.00;98.10;;;;;;4965872;28;19920;-76
2021/03/08 06:28:50;;;;;;;;;;;0.10;98.60;;;;;;4968421;28;19965;-76
2021/03/08 06:31:15;;;;;;;;;;;0.10;97.20;;;;;;4950087;29;19925;-76
2021/03/08 06:33:41;;;;;;;;;;;0.10;98.90;;;;;;4951136;28;19922;-76
2021/03/08 06:36:06;;;;;;;;;;;0.10;97.30;;;;;;4951874;29;19919;-75
2021/03/08 06:38:32;;;;;;;;;;;0.10;96.00;;;;;;4950626;29;19911;-76
2021/03/08 06:41:01;;;;;;;;;;;0.10;98.60;;;;;;4949839;29;20465;-76
2021/03/08 06:43:27;;;;;;;;;;;0.10;98.10;;;;;;4946826;29;20486;-76
2021/03/08 06:45:56;;;;;;;;;;;0.20;99.00;;;;;;4948891;29;20001;-75
2021/03/08 06:48:23;;;;;;;;;;;0.20;98.00;;;;;;4949839;28;19907;-76
2021/03/08 06:51:08;;;;;;;;;;;0.20;97.00;;;;;;4952912;28;20122;-76
2021/03/08 06:53:35;;;;;;;;;;;0.20;97.50;;;;;;4951514;28;20005;-76
2021/03/08 06:56:16;;;;;;;;;;;0.20;96.50;;;;;;4950285;28;20448;-76
2021/03/08 06:58:44;;;;;;;;;;;0.20;95.70;;;;;;4950516;28;19914;-76
2021/03/08 07:01:13;;;;;;;;;;;0.30;96.60;;;;;;4931319;29;19918;-76
2021/03/08 07:03:38;;;;;;;;;;;0.30;97.00;;;;;;4951808;29;20535;-76
2021/03/08 07:06:19;;;;;;;;;;;0.30;98.60;;;;;;4948834;28;19911;-76
2021/03/08 07:08:45;;;;;;;;;;;0.30;97.80;;;;;;4950721;29;19910;-77
2021/03/08 07:11:14;;;;;;;;;;;0.40;97.80;;;;;;4946208;29;20001;-75
2021/03/08 07:13:40;;;;;;;;;;;0.40;99.90;;;;;;4947450;28;20344;-75
2021/03/08 07:16:05;;;;;;;;;;;0.40;99.60;;;;;;4950722;28;19922;-75
2021/03/08 07:18:31;;;;;;;;;;;0.50;99.90;;;;;;4947004;28;19997;-77
2021/03/08 07:21:20;;;;;;;;;;;0.50;99.90;;;;;;4946452;29;20030;-74
2021/03/08 07:23:46;;;;;;;;;;;0.60;99.90;;;;;;4940819;29;19993;-75
2021/03/08 07:26:16;;;;;;;;;;;0.60;99.90;;;;;;4960738;28;20128;-80
2021/03/08 07:28:41;;;;;;;;;;;0.60;99.90;;;;;;4948377;28;19914;-80
2021/03/08 07:31:07;;;;;;;;;;;0.70;99.90;;;;;;4947917;28;19921;-76
2021/03/08 07:33:35;;;;;;;;;;;0.80;99.90;;;;;;4949238;28;19946;-76
2021/03/08 07:36:12;;;;;;;;;;;0.80;99.90;;;;;;4948589;28;19914;-76
2021/03/08 07:38:44;;;;;;;;;;;0.90;99.90;;;;;;4950299;28;19925;-76
2021/03/08 07:41:13;;;;;;;;;;;0.90;99.90;;;;;;4942806;29;19922;-76
2021/03/08 07:43:39;;;;;;;;;;;1.00;99.90;;;;;;4947642;28;20569;-76
2021/03/08 07:46:05;;;;;;;;;;;1.00;99.90;;;;;;4947209;29;19910;-76
2021/03/08 07:48:33;;;;;;;;;;;1.10;99.90;;;;;;4943712;29;19973;-77
2021/03/08 07:51:04;;;;;;;;;;;1.10;99.90;;;;;;4947294;28;19924;-76
2021/03/08 07:53:34;;;;;;;;;;;1.20;99.90;;;;;;4947712;29;19922;-77
2021/03/08 07:56:00;;;;;;;;;;;1.30;99.90;;;;;;4950269;28;20429;-77
2021/03/08 07:58:27;;;;;;;;;;;1.40;99.90;;;;;;4953090;28;20297;-77
2021/03/08 08:00:55;;;;;;;;;;;1.40;99.90;;;;;;4933308;29;20348;-77
2021/03/08 08:03:20;;;;;;;;;;;1.40;99.90;;;;;;4949364;28;19919;-77
2021/03/08 08:05:51;;;;;;;;;;;1.50;99.90;;;;;;4949504;29;19918;-77
2021/03/08 08:08:18;;;;;;;;;;;1.60;99.90;;;;;;4929828;29;19915;-76
2021/03/08 08:10:49;;;;;;;;;;;1.70;99.90;;;;;;4931520;29;19993;-75
2021/03/08 08:13:14;;;;;;;;;;;1.70;99.90;;;;;;4951880;28;19922;-76
2021/03/08 08:15:40;;;;;;;;;;;1.80;99.90;;;;;;4948239;28;19922;-76
2021/03/08 08:18:07;;;;;;;;;;;1.90;99.90;;;;;;4949584;29;19911;-77
2021/03/08 08:20:35;;;;;;;;;;;2.00;99.90;;;;;;4948344;28;20012;-77
2021/03/08 08:23:01;;;;;;;;;;;2.10;99.90;;;;;;4950964;28;19914;-77
2021/03/08 08:25:27;;;;;;;;;;;2.10;99.90;;;;;;4947597;29;19957;-78
2021/03/08 08:27:52;;;;;;;;;;;2.20;99.90;;;;;;4947335;28;19962;-78
2021/03/08 08:30:18;;;;;;;;;;;2.30;99.90;;;;;;4948506;28;19941;-78
2021/03/08 08:32:50;;;;;;;;;;;2.40;99.90;;;;;;4945723;28;19973;-78
2021/03/08 08:35:16;;;;;;;;;;;2.40;99.90;;;;;;4945712;28;19914;-78
2021/03/08 08:37:44;;;;;;;;;;;2.50;99.90;;;;;;4962272;28;19918;-78
2021/03/08 08:40:10;;;;;;;;;;;2.60;99.90;;;;;;4947793;28;20048;-78
2021/03/08 08:42:38;;;;;;;;;;;2.70;99.90;;;;;;4947534;28;20366;-78
2021/03/08 08:45:36;;;;;;;;;;;2.80;99.90;;;;;;4964649;28;19997;-76
2021/03/08 08:48:04;;;;;;;;;;;2.80;99.90;;;;;;4934300;28;19918;-78
2021/03/08 08:50:30;;;;;;;;;;;2.90;99.90;;;;;;4964246;28;19969;-78
2021/03/08 08:52:56;;;;;;;;;;;3.00;99.90;;;;;;4946915;28;19910;-78
2021/03/08 08:55:42;;;;;;;;;;;3.00;99.90;;;;;;4947355;28;19918;-80
2021/03/08 08:58:20;;;;;;;;;;;3.10;99.90;;;;;;4937687;29;19929;-80
2021/03/08 09:01:05;;;;;;;;;;;3.20;99.90;;;;;;4943148;29;20503;-79
2021/03/08 09:03:49;;;;;;;;;;;3.20;99.90;;;;;;4943016;29;19914;-81
2021/03/08 09:06:34;;;;;;;;;;;3.30;99.90;;;;;;4962975;28;20375;-80
2021/03/08 09:08:59;;;;;;;;;;;3.40;99.90;;;;;;4957705;28;19918;-80
2021/03/08 09:11:46;;;;;;;;;;;3.50;99.90;;;;;;4929160;29;19910;-79
2021/03/08 09:14:25;;;;;;;;;;;3.50;99.90;;;;;;4963035;28;19918;-80
2021/03/08 09:17:10;;;;;;;;;;;3.60;99.40;;;;;;4946181;29;19910;-80
2021/03/08 09:19:35;;;;;;;;;;;3.70;99.10;;;;;;4947530;29;20511;-80
2021/03/08 09:22:20;;;;;;;;;;;3.70;98.80;;;;;;4950062;28;19942;-80
2021/03/08 09:24:45;;;;;;;;;;;3.70;98.30;;;;;;4945387;28;19950;-80
2021/03/08 09:27:17;;;;;;;;;;;3.80;98.20;;;;;;4945558;29;19978;-81
2021/03/08 09:29:43;;;;;;;;;;;3.80;97.30;;;;;;4948677;28;20376;-81
2021/03/08 09:32:10;;;;;;;;;;;3.90;99.70;;;;;;4948050;28;19918;-81
2021/03/08 09:34:35;;;;;;;;;;;4.00;96.20;;;;;;4945762;28;20471;-81
2021/03/08 09:37:01;;;;;;;;;;;4.00;95.90;;;;;;4945373;29;20005;-81
2021/03/08 09:39:27;;;;;;;;;;;4.10;96.50;;;;;;4963474;28;20287;-80
2021/03/08 09:41:52;;;;;;;;;;;4.10;98.30;;;;;;4946427;28;19957;-81
2021/03/08 09:44:18;;;;;;;;;;;4.20;96.60;;;;;;4930889;29;19969;-81
2021/03/08 09:46:55;;;;;;;;;;;4.20;97.50;;;;;;4946815;29;20036;-80
2021/03/08 09:49:20;;;;;;;;;;;4.20;96.20;;;;;;4945950;29;19919;-82
2021/03/08 09:51:46;;;;;;;;;;;4.20;96.90;;;;;;4936331;29;20363;-80
2021/03/08 09:54:12;;;;;;;;;;;4.30;94.80;;;;;;4945918;28;19926;-80
2021/03/08 09:56:39;;;;;;;;;;;4.30;96.20;;;;;;4946145;28;19918;-81
2021/03/08 09:59:08;;;;;;;;;;;4.40;96.80;;;;;;4947752;29;19921;-80
2021/03/08 10:01:34;;;;;;;;;;;4.40;97.30;;;;;;4945562;29;20434;-80
2021/03/08 10:03:59;;;;;;;;;;;4.50;95.70;;;;;;4948540;29;19929;-81
2021/03/08 10:06:31;;;;;;;;;;;4.50;96.50;;;;;;4943562;29;19919;-80
2021/03/08 10:08:57;;;;;;;;;;;4.60;95.10;;;;;;4962834;28;19973;-80
2021/03/08 10:11:23;;;;;;;;;;;4.60;94.20;;;;;;4945946;28;19921;-80
2021/03/08 10:13:51;;;;;;;;;;;4.60;95.50;;;;;;4942133;29;19918;-80
2021/03/08 10:16:22;;;;;;;;;;;4.70;96.40;;;;;;4949129;28;19965;-80
2021/03/08 10:18:47;;;;;;;;;;;4.70;95.10;;;;;;4952859;28;19925;-80
2021/03/08 10:21:13;;;;;;;;;;;4.70;95.00;;;;;;4928736;29;20309;-80
2021/03/08 10:23:39;;;;;;;;;;;4.70;94.80;;;;;;4946187;29;19946;-74
2021/03/08 10:26:04;;;;;;;;;;;4.70;95.80;;;;;;4947723;29;20380;-76
2021/03/08 10:28:56;;;;;;;;;;;4.70;93.40;;;;;;4950000;28;20485;-74
2021/03/08 10:31:23;;;;;;;;;;;4.80;95.60;;;;;;4960250;28;19910;-80
2021/03/08 10:34:01;;;;;;;;;;;4.80;95.20;;;;;;4945685;28;20321;-80
2021/03/08 10:36:27;;;;;;;;;;;4.90;95.50;;;;;;4950353;29;19919;-80
2021/03/08 10:38:54;;;;;;;;;;;5.00;94.90;;;;;;4935279;29;20002;-80
2021/03/08 10:41:22;;;;;;;;;;;5.00;94.50;;;;;;4946515;28;19922;-80
2021/03/08 10:43:48;;;;;;;;;;;5.10;93.80;;;;;;4946829;29;19911;-81
2021/03/08 10:46:13;;;;;;;;;;;5.10;90.70;;;;;;4928492;29;19910;-80
2021/03/08 10:48:57;;;;;;;;;;;5.10;91.30;;;;;;4950168;28;19930;-80
2021/03/08 10:51:25;;;;;;;;;;;5.20;91.90;;;;;;4946265;29;19937;-80
2021/03/08 10:53:58;;;;;;;;;;;5.20;91.90;;;;;;4945136;29;20001;-80
2021/03/08 10:56:26;;;;;;;;;;;5.30;92.90;;;;;;4926907;29;19921;-79
2021/03/08 10:58:54;;;;;;;;;;;5.30;91.30;;;;;;4946955;29;20399;-80
2021/03/08 11:01:23;;;;;;;;;;;5.40;91.60;;;;;;4945612;28;19950;-80
2021/03/08 11:03:48;;;;;;;;;;;5.50;92.40;;;;;;4959149;28;19922;-80
2021/03/08 11:06:15;;;;;;;;;;;5.50;90.90;;;;;;4956054;28;19969;-80
2021/03/08 11:08:41;;;;;;;;;;;5.60;90.50;;;;;;4939603;29;19910;-79
2021/03/08 11:11:33;;;;;;;;;;;5.70;89.10;;;;;;4946736;28;21911;-80
2021/03/08 11:14:04;;;;;;;;;;;5.80;91.00;;;;;;4961119;28;19928;-79
2021/03/08 11:16:31;;;;;;;;;;;5.80;91.70;;;;;;4956607;28;20483;-80
2021/03/08 11:19:17;;;;;;;;;;;5.90;93.50;;;;;;4928184;29;19911;-79
2021/03/08 11:21:42;;;;;;;;;;;6.00;88.20;;;;;;4965310;28;19925;-79
2021/03/08 11:24:21;;;;;;;;;;;6.00;87.80;;;;;;4930858;29;19914;-80
2021/03/08 11:27:08;;;;;;;;;;;6.10;88.80;;;;;;4930982;29;19919;-80
2021/03/08 11:29:34;;;;;;;;;;;6.10;86.80;;;;;;4945736;28;20005;-79
2021/03/08 11:31:59;;;;;;;;;;;6.10;88.80;;;;;;4948637;28;20001;-79
2021/03/08 11:34:39;;;;;;;;;;;6.20;90.10;;;;;;4948562;28;19926;-79
2021/03/08 11:37:08;;;;;;;;;;;6.30;86.20;;;;;;4948995;29;19911;-80
2021/03/08 11:39:42;;;;;;;;;;;6.40;86.40;;;;;;4950702;28;19921;-79
2021/03/08 11:42:08;;;;;;;;;;;6.40;86.10;;;;;;4946816;29;19925;-79
2021/03/08 11:44:34;;;;;;;;;;;6.50;84.20;;;;;;4963991;28;20008;-79
2021/03/08 11:46:59;;;;;;;;;;;6.50;85.60;;;;;;4931093;29;20018;-79
2021/03/08 11:49:25;;;;;;;;;;;6.50;85.50;;;;;;4949876;29;19974;-79
2021/03/08 11:51:51;;;;;;;;;;;6.50;85.60;;;;;;4952269;29;19910;-80
2021/03/08 11:54:16;;;;;;;;;;;6.50;85.70;;;;;;4951697;28;20368;-79
2021/03/08 11:56:42;;;;;;;;;;;6.60;85.40;;;;;;4941162;29;20010;-79
2021/03/08 11:59:23;;;;;;;;;;;6.60;84.80;;;;;;4947962;29;20375;-79
2021/03/08 12:01:48;;;;;;;;;;;6.70;86.10;;;;;;4950612;29;19918;-79
2021/03/08 12:04:14;;;;;;;;;;;6.70;82.80;;;;;;4947525;28;19922;-79
2021/03/08 12:06:42;;;;;;;;;;;6.70;82.00;;;;;;4949089;29;20004;-78
2021/03/08 12:09:09;;;;;;;;;;;6.70;79.40;;;;;;4949318;29;19922;-79
2021/03/08 12:11:37;;;;;;;;;;;6.70;83.70;;;;;;4962799;28;19914;-79
2021/03/08 12:14:02;;;;;;;;;;;6.80;83.90;;;;;;4949252;28;19918;-80
2021/03/08 12:16:28;;;;;;;;;;;6.80;84.20;;;;;;4945203;29;20388;-80
2021/03/08 12:18:56;;;;;;;;;;;6.80;82.30;;;;;;4949735;29;19921;-79
2021/03/08 12:21:24;;;;;;;;;;;6.80;80.00;;;;;;4948518;29;19996;-79
2021/03/08 12:23:50;;;;;;;;;;;6.80;83.90;;;;;;4946713;28;19925;-79
2021/03/08 12:26:15;;;;;;;;;;;6.90;85.30;;;;;;4951288;28;20373;-79
2021/03/08 12:28:41;;;;;;;;;;;6.90;82.80;;;;;;4950307;29;20030;-79
2021/03/08 12:31:14;;;;;;;;;;;7.00;82.30;;;;;;4953347;28;19933;-79
2021/03/08 12:33:42;;;;;;;;;;;7.00;80.30;;;;;;4945800;29;20005;-81
2021/03/08 12:36:08;;;;;;;;;;;6.90;80.80;;;;;;4966501;28;20256;-80
2021/03/08 12:38:36;;;;;;;;;;;7.00;83.50;;;;;;4948438;28;19921;-80
2021/03/08 12:41:02;;;;;;;;;;;6.90;79.20;;;;;;4947224;29;20379;-80
2021/03/08 12:43:28;;;;;;;;;;;6.90;80.20;;;;;;4930641;29;19918;-81
2021/03/08 12:45:53;;;;;;;;;;;6.90;81.30;;;;;;4949935;28;20347;-80
2021/03/08 12:48:21;;;;;;;;;;;6.90;83.20;;;;;;4948505;28;19920;-80
2021/03/08 12:50:48;;;;;;;;;;;6.90;85.00;;;;;;4934359;29;19910;-81
2021/03/08 12:53:13;;;;;;;;;;;6.90;86.10;;;;;;4947696;28;19914;-80
2021/03/08 12:55:42;;;;;;;;;;;6.90;85.70;;;;;;4946653;28;20013;-80
2021/03/08 12:58:07;;;;;;;;;;;6.90;82.30;;;;;;4943759;28;19915;-80
2021/03/08 13:00:33;;;;;;;;;;;7.00;84.60;;;;;;4948529;28;19914;-80
2021/03/08 13:03:01;;;;;;;;;;;7.00;82.10;;;;;;4964835;28;19993;-80
2021/03/08 13:05:27;;;;;;;;;;;7.00;79.90;;;;;;4945569;28;19918;-80
2021/03/08 13:07:55;;;;;;;;;;;7.00;82.90;;;;;;4945797;28;19968;-80
2021/03/08 13:10:20;;;;;;;;;;;7.00;79.90;;;;;;4945525;28;19997;-79
2021/03/08 13:12:48;;;;;;;;;;;7.00;79.60;;;;;;4945509;29;20005;-80
2021/03/08 13:15:14;;;;;;;;;;;7.00;80.00;;;;;;4947748;28;20009;-80
2021/03/08 13:17:42;;;;;;;;;;;7.00;81.50;;;;;;4931433;29;20041;-80
2021/03/08 13:20:09;;;;;;;;;;;7.00;82.50;;;;;;4946439;29;20521;-80
2021/03/08 13:22:35;;;;;;;;;;;7.00;82.40;;;;;;4949304;29;19925;-78
2021/03/08 13:25:03;;;;;;;;;;;7.00;82.50;;;;;;4944473;29;19915;-78
2021/03/08 13:27:28;;;;;;;;;;;7.10;82.20;;;;;;4945123;28;20017;-80
2021/03/08 13:29:56;;;;;;;;;;;7.10;83.70;;;;;;4961304;28;19997;-80
2021/03/08 13:32:24;;;;;;;;;;;7.20;86.20;;;;;;4945034;29;19910;-80
2021/03/08 13:34:49;;;;;;;;;;;7.20;83.50;;;;;;4936063;29;19973;-80
2021/03/08 13:37:15;;;;;;;;;;;7.30;83.80;;;;;;4947631;28;19946;-80
2021/03/08 13:39:45;;;;;;;;;;;7.30;83.20;;;;;;4947031;28;19985;-80
2021/03/08 13:42:11;;;;;;;;;;;7.30;82.50;;;;;;4945120;28;19965;-80
2021/03/08 13:44:39;;;;;;;;;;;7.30;82.80;;;;;;4948441;28;19914;-80
2021/03/08 13:47:04;;;;;;;;;;;7.20;82.30;;;;;;4944143;29;19969;-80
2021/03/08 13:49:32;;;;;;;;;;;7.20;84.00;;;;;;4927437;29;19911;-80
2021/03/08 13:51:58;;;;;;;;;;;7.20;84.70;;;;;;4948591;28;20447;-81
2021/03/08 13:54:23;;;;;;;;;;;7.20;83.60;;;;;;4943917;29;20017;-81
2021/03/08 13:56:54;;;;;;;;;;;7.20;84.20;;;;;;4947599;28;19910;-80
2021/03/08 13:59:20;;;;;;;;;;;7.30;85.70;;;;;;4961781;28;19921;-80
2021/03/08 14:01:46;;;;;;;;;;;7.30;85.70;;;;;;4949098;28;19942;-80
2021/03/08 14:04:14;;;;;;;;;;;7.30;84.60;;;;;;4953761;28;19918;-80
2021/03/08 14:06:40;;;;;;;;;;;7.30;83.10;;;;;;4948069;28;19918;-80
2021/03/08 14:09:08;;;;;;;;;;;7.40;83.40;;;;;;4949664;29;19925;-80
2021/03/08 14:11:33;;;;;;;;;;;7.30;82.00;;;;;;4949122;28;19929;-80
2021/03/08 14:14:01;;;;;;;;;;;7.30;83.70;;;;;;4947609;28;19910;-80
2021/03/08 14:16:29;;;;;;;;;;;7.30;84.20;;;;;;4947696;29;19914;-80
2021/03/08 14:18:55;;;;;;;;;;;7.30;84.30;;;;;;4947578;29;19911;-80
2021/03/08 14:21:23;;;;;;;;;;;7.40;84.50;;;;;;4948100;28;20628;-80
2021/03/08 14:23:48;;;;;;;;;;;7.30;84.70;;;;;;4946199;28;19929;-80
2021/03/08 14:26:17;;;;;;;;;;;7.30;84.40;;;;;;4262209;28;10020823;-76
2021/03/08 14:28:45;;;;;;;;;;;7.30;83.40;;;;;;4950093;28;20349;-77
2021/03/08 14:31:11;;;;;;;;;;;7.20;82.10;;;;;;4946016;29;20001;-80
2021/03/08 14:33:39;;;;;;;;;;;7.30;85.40;;;;;;4949037;29;19946;-81
2021/03/08 14:36:07;;;;;;;;;;;7.30;85.10;;;;;;4948677;28;19925;-82
2021/03/08 14:38:35;;;;;;;;;;;7.20;86.20;;;;;;4949135;28;19958;-82